Time;durP1;ratioP1;P1;durP2;ratioP2;P2;SDS_P1;SDS_P2;PMS_P1;PMS_P2;Temp;Humidity;BMP_temperature;BMP_pressure;BME280_temperature;BME280_humidity;BME280_pressure;Samples;Min_cycle;Max_cycle;Signal;HPM_P1;HPM_P2
2023/06/01 00:02:23;;;;;;;5.25;3.50;;;;;;;20.90;46.26;102544.34;5013302;28;20063;-83
2023/06/01 00:04:50;;;;;;;4.35;2.90;;;;;;;20.93;46.10;102550.16;4997442;28;20096;-85
2023/06/01 00:07:16;;;;;;;5.68;3.10;;;;;;;20.81;46.22;102527.50;4998620;28;20044;-85
2023/06/01 00:09:42;;;;;;;4.75;2.58;;;;;;;20.71;46.29;102524.88;4996846;28;20030;-84
2023/06/01 00:12:08;;;;;;;5.00;2.90;;;;;;;20.81;46.29;102549.50;4984062;28;20064;-87
2023/06/01 00:14:34;;;;;;;3.22;2.72;;;;;;;20.70;46.41;102530.34;5017190;28;20037;-88
2023/06/01 00:16:59;;;;;;;6.25;3.25;;;;;;;20.46;46.48;102491.94;4999364;28;20053;-87
2023/06/01 00:19:26;;;;;;;5.28;3.08;;;;;;;20.77;46.32;102537.53;4981546;28;20064;-87
2023/06/01 00:21:53;;;;;;;6.57;3.17;;;;;;;20.78;46.47;102541.03;5014780;28;20072;-87
2023/06/01 00:24:20;;;;;;;4.82;2.75;;;;;;;20.67;46.35;102526.16;4995576;28;20046;-88
2023/06/01 00:26:46;;;;;;;4.18;3.22;;;;;;;20.66;46.31;102527.16;4985727;28;20038;-84
2023/06/01 00:29:13;;;;;;;4.72;3.08;;;;;;;20.68;46.57;102532.28;4982023;28;20639;-85
2023/06/01 00:31:38;;;;;;;5.00;3.45;;;;;;;20.71;46.22;102537.28;4971908;28;20062;-85
2023/06/01 00:34:04;;;;;;;5.97;3.30;;;;;;;20.64;46.23;102528.25;5002113;28;20037;-83
2023/06/01 00:36:31;;;;;;;5.70;3.30;;;;;;;20.65;46.64;102535.22;4973467;28;20062;-85
2023/06/01 00:39:01;;;;;;;3.63;3.00;;;;;;;20.54;46.77;102524.81;4951602;28;20049;-84
2023/06/01 00:41:31;;;;;;;6.03;3.50;;;;;;;20.62;46.82;102533.69;5018204;28;20042;-88
2023/06/01 00:43:57;;;;;;;4.40;2.90;;;;;;;20.42;46.68;102500.31;5001002;28;20080;-88
2023/06/01 00:46:22;;;;;;;4.03;2.95;;;;;;;20.61;46.47;102532.00;4982407;28;20551;-89
2023/06/01 00:48:48;;;;;;;4.05;2.92;;;;;;;20.57;46.66;102513.94;4996046;28;20515;-87
2023/06/01 00:51:15;;;;;;;6.15;3.30;;;;;;;20.51;46.66;102507.41;4968797;28;20089;-87
2023/06/01 00:53:41;;;;;;;5.90;3.17;;;;;;;20.58;46.53;102531.47;4987898;28;20033;-88
2023/06/01 00:56:08;;;;;;;4.85;3.15;;;;;;;20.63;46.50;102526.56;5014558;28;20053;-87
2023/06/01 00:58:34;;;;;;;5.35;3.22;;;;;;;20.36;46.60;102491.13;5007125;28;20061;-89
2023/06/01 01:01:01;;;;;;;4.32;3.35;;;;;;;20.57;46.77;102528.00;5010642;28;20057;-87
2023/06/01 01:03:31;;;;;;;5.30;3.30;;;;;;;20.32;46.86;102491.56;5012471;28;20453;-87
2023/06/01 01:06:13;;;;;;;6.07;3.63;;;;;;;20.45;46.74;102510.59;5013974;28;20022;-88
2023/06/01 01:09:07;;;;;;;4.60;3.08;;;;;;;20.32;46.76;102495.03;5001855;28;20100;-87
2023/06/01 01:11:36;;;;;;;4.72;2.85;;;;;;;20.44;46.88;102517.72;5017674;28;20065;-88
2023/06/01 01:14:14;;;;;;;5.05;3.13;;;;;;;20.51;46.54;102525.94;4996844;28;20030;-88
2023/06/01 01:16:49;;;;;;;4.07;2.83;;;;;;;20.48;46.78;102531.50;5000919;28;20034;-88
2023/06/01 01:19:42;;;;;;;5.20;3.05;;;;;;;20.44;46.80;102519.53;5000479;28;20929;-89
2023/06/01 01:22:22;;;;;;;8.25;3.33;;;;;;;20.39;46.85;102513.81;4982605;28;20295;-89
2023/06/01 01:25:14;;;;;;;6.57;3.38;;;;;;;20.47;46.82;102522.75;5013437;28;20033;-89
2023/06/01 01:27:46;;;;;;;5.35;2.80;;;;;;;20.36;46.87;102503.50;5006046;28;20053;-88
2023/06/01 01:30:13;;;;;;;5.78;3.17;;;;;;;20.40;46.70;102502.25;5010616;28;20038;-89
2023/06/01 01:32:40;;;;;;;5.13;2.88;;;;;;;20.24;46.89;102479.00;4987886;28;21946;-89
2023/06/01 01:35:09;;;;;;;3.85;2.80;;;;;;;20.40;46.75;102503.06;4984019;28;20045;-88
2023/06/01 01:37:35;;;;;;;4.95;3.15;;;;;;;20.00;46.49;102439.81;5015000;28;20033;-87
2023/06/01 01:40:02;;;;;;;4.35;3.10;;;;;;;20.33;46.81;102502.00;5026331;28;20065;-88
2023/06/01 01:42:28;;;;;;;4.95;3.25;;;;;;;20.42;46.63;102511.72;4978020;28;20120;-87
2023/06/01 01:44:54;;;;;;;9.40;3.83;;;;;;;20.41;46.84;102512.72;5026866;28;20030;-87
2023/06/01 01:47:36;;;;;;;5.00;2.95;;;;;;;20.47;46.80;102522.75;5011836;28;20045;-87
2023/06/01 01:50:09;;;;;;;5.70;3.40;;;;;;;20.33;47.20;102506.44;4996831;28;20030;-88
2023/06/01 01:52:38;;;;;;;6.18;3.20;;;;;;;20.34;46.83;102508.13;4997317;28;20049;-86
2023/06/01 01:55:07;;;;;;;6.63;3.42;;;;;;;20.32;46.74;102508.25;4998022;28;20052;-87
2023/06/01 01:57:34;;;;;;;4.00;3.10;;;;;;;20.44;46.67;102523.00;5011668;28;20042;-88
2023/06/01 02:00:01;;;;;;;5.88;3.22;;;;;;;20.41;46.91;102525.94;4983601;28;20480;-88
2023/06/01 02:02:27;;;;;;;4.45;3.25;;;;;;;20.34;46.90;102508.94;4979759;28;20117;-88
2023/06/01 02:04:55;;;;;;;6.22;3.38;;;;;;;20.31;46.83;102501.31;4983409;28;21794;-87
2023/06/01 02:07:21;;;;;;;4.60;3.17;;;;;;;20.23;47.14;102498.50;4980691;28;20046;-88
2023/06/01 02:09:47;;;;;;;4.32;3.00;;;;;;;20.32;46.83;102502.97;5012609;28;21589;-87
2023/06/01 02:12:13;;;;;;;6.50;3.15;;;;;;;20.31;46.96;102506.59;5001876;28;20491;-88
2023/06/01 02:14:38;;;;;;;4.72;2.90;;;;;;;20.33;46.94;102507.28;4995277;28;20042;-88
2023/06/01 02:17:05;;;;;;;3.95;3.03;;;;;;;20.33;46.91;102502.00;4969391;28;20050;-87
2023/06/01 02:19:31;;;;;;;5.13;3.40;;;;;;;20.20;46.96;102477.63;4969736;28;20042;-87
2023/06/01 02:21:56;;;;;;;4.03;3.20;;;;;;;20.36;46.81;102500.88;4999842;28;20096;-88
2023/06/01 02:24:22;;;;;;;5.20;3.05;;;;;;;20.31;46.76;102488.06;4983323;28;20488;-88
2023/06/01 02:26:51;;;;;;;5.55;2.90;;;;;;;20.20;46.81;102480.28;5000771;28;20045;-88
2023/06/01 02:29:19;;;;;;;4.75;3.40;;;;;;;20.35;46.94;102499.19;5001592;28;20056;-87
2023/06/01 02:31:45;;;;;;;5.45;3.30;;;;;;;20.31;47.06;102481.94;4986939;28;20033;-88
2023/06/01 02:34:11;;;;;;;5.75;3.65;;;;;;;20.22;46.87;102479.16;4996302;28;20109;-87
2023/06/01 02:36:36;;;;;;;6.15;3.20;;;;;;;20.16;46.88;102466.50;5016330;28;20481;-88
2023/06/01 02:39:02;;;;;;;5.03;3.10;;;;;;;20.20;46.93;102475.00;4969263;28;20057;-87
2023/06/01 02:41:28;;;;;;;5.45;3.28;;;;;;;20.28;47.08;102493.63;4955238;28;20049;-88
2023/06/01 02:43:53;;;;;;;4.10;3.10;;;;;;;20.10;47.18;102453.00;4981766;28;20045;-87
2023/06/01 02:46:19;;;;;;;6.22;3.50;;;;;;;20.26;46.81;102478.88;5000384;28;20439;-86
2023/06/01 02:48:46;;;;;;;3.83;2.80;;;;;;;20.19;47.08;102468.03;5000643;28;20185;-86
2023/06/01 02:51:12;;;;;;;6.25;3.10;;;;;;;20.17;46.89;102456.78;4984411;28;20488;-86
2023/06/01 02:53:42;;;;;;;4.95;3.25;;;;;;;20.25;46.87;102479.84;4985869;28;20045;-85
2023/06/01 02:56:10;;;;;;;6.78;3.40;;;;;;;20.20;47.02;102473.19;4999929;28;20098;-86
2023/06/01 02:59:03;;;;;;;5.10;3.35;;;;;;;20.18;47.00;102467.22;4986554;28;20050;-84
2023/06/01 03:01:35;;;;;;;5.53;3.30;;;;;;;20.26;46.94;102482.34;4995868;28;20056;-85
2023/06/01 03:04:07;;;;;;;6.10;4.07;;;;;;;20.20;46.96;102475.81;4983527;28;20048;-86
2023/06/01 03:06:36;;;;;;;3.45;2.65;;;;;;;20.23;46.96;102478.19;4998769;28;20029;-85
2023/06/01 03:09:01;;;;;;;4.32;2.97;;;;;;;20.28;46.92;102485.69;4999016;28;20068;-86
2023/06/01 03:11:46;;;;;;;5.60;3.53;;;;;;;20.07;47.12;102458.59;4999707;28;20121;-86
2023/06/01 03:14:11;;;;;;;7.35;4.07;;;;;;;20.27;47.02;102477.91;4994689;28;20050;-87
2023/06/01 03:16:37;;;;;;;4.13;3.05;;;;;;;20.10;46.99;102456.47;5012358;28;20038;-86
2023/06/01 03:19:11;;;;;;;4.72;3.50;;;;;;;20.18;46.85;102461.09;4978809;28;20053;-87
2023/06/01 03:21:37;;;;;;;5.15;3.72;;;;;;;20.13;47.03;102455.41;4996499;28;20038;-87
2023/06/01 03:24:04;;;;;;;5.57;3.17;;;;;;;20.09;47.36;102451.34;4981784;28;20030;-88
2023/06/01 03:26:29;;;;;;;4.22;3.35;;;;;;;20.22;47.00;102465.94;4999604;28;20606;-88
2023/06/01 03:28:55;;;;;;;4.32;3.08;;;;;;;20.14;47.04;102457.06;4982438;28;20037;-88
2023/06/01 03:31:21;;;;;;;3.95;2.92;;;;;;;20.11;47.03;102455.53;4970827;28;20034;-88
2023/06/01 03:33:48;;;;;;;4.13;2.80;;;;;;;20.08;46.93;102441.75;4999116;28;20042;-87
2023/06/01 03:36:14;;;;;;;4.72;3.22;;;;;;;20.11;46.93;102447.59;4997874;28;20038;-87
2023/06/01 03:38:41;;;;;;;4.70;2.75;;;;;;;20.16;47.01;102453.28;4982617;28;20044;-87
2023/06/01 03:41:07;;;;;;;4.43;3.20;;;;;;;20.19;46.92;102460.09;4968242;28;20067;-87
2023/06/01 03:43:33;;;;;;;4.07;3.00;;;;;;;20.08;47.01;102447.03;4985818;28;20025;-88
2023/06/01 03:45:59;;;;;;;4.75;2.78;;;;;;;20.00;47.02;102428.41;4969083;28;20034;-87
2023/06/01 03:48:25;;;;;;;5.13;2.90;;;;;;;20.13;46.98;102455.41;4964764;28;20516;-87
2023/06/01 03:50:51;;;;;;;3.58;2.78;;;;;;;20.14;47.02;102446.47;4979313;28;20030;-88
2023/06/01 03:53:16;;;;;;;4.93;3.20;;;;;;;20.09;46.80;102443.41;4983458;28;20112;-87
2023/06/01 03:55:42;;;;;;;4.75;3.08;;;;;;;19.99;46.92;102432.03;4998490;28;20034;-86
2023/06/01 03:58:18;;;;;;;4.30;2.95;;;;;;;20.06;47.29;102457.75;4997453;28;20082;-87
2023/06/01 04:00:46;;;;;;;5.22;3.05;;;;;;;19.96;46.99;102427.88;4992915;28;20034;-86
2023/06/01 04:03:13;;;;;;;4.15;2.80;;;;;;;20.12;47.04;102454.56;4979899;28;20045;-86
2023/06/01 04:05:38;;;;;;;4.85;2.80;;;;;;;20.03;47.03;102442.16;4994715;28;20037;-86
2023/06/01 04:08:04;;;;;;;4.70;2.97;;;;;;;20.05;46.96;102442.88;4993454;28;20033;-86
2023/06/01 04:10:30;;;;;;;5.90;3.00;;;;;;;20.04;47.17;102440.38;4994742;28;20071;-87
2023/06/01 04:12:55;;;;;;;3.92;2.85;;;;;;;20.00;46.97;102439.81;4982152;28;20057;-87
2023/06/01 04:15:25;;;;;;;5.68;3.35;;;;;;;20.14;47.13;102454.41;4979806;28;20045;-89
2023/06/01 04:17:51;;;;;;;5.43;3.22;;;;;;;20.15;46.76;102459.56;4985517;28;20034;-88
2023/06/01 04:20:17;;;;;;;4.20;2.72;;;;;;;20.01;47.04;102438.84;4977456;28;20080;-87
2023/06/01 04:22:45;;;;;;;3.70;2.72;;;;;;;20.08;47.07;102452.31;4996280;28;20041;-87
2023/06/01 04:25:16;;;;;;;5.35;3.05;;;;;;;20.01;46.95;102438.00;4997117;28;20033;-87
2023/06/01 04:27:51;;;;;;;4.25;3.03;;;;;;;20.17;46.96;102456.78;4980892;28;20504;-87
2023/06/01 04:30:17;;;;;;;3.67;3.10;;;;;;;20.03;47.21;102443.97;4975161;28;20038;-87
2023/06/01 04:32:44;;;;;;;4.95;2.85;;;;;;;19.87;47.11;102416.31;4984277;28;20054;-87
2023/06/01 04:35:11;;;;;;;3.65;2.70;;;;;;;20.06;47.17;102451.63;4980190;28;20964;-87
2023/06/01 04:37:42;;;;;;;3.22;2.63;;;;;;;20.12;47.00;102453.72;4998599;28;20033;-87
2023/06/01 04:40:10;;;;;;;4.38;3.20;;;;;;;20.11;47.09;102457.34;4985269;28;20048;-88
2023/06/01 04:42:42;;;;;;;4.65;3.00;;;;;;;20.11;47.16;102454.69;4984078;28;20516;-88
2023/06/01 04:45:10;;;;;;;4.03;2.85;;;;;;;20.09;47.12;102453.97;4996233;28;20028;-88
2023/06/01 04:47:39;;;;;;;5.55;3.10;;;;;;;20.02;47.18;102443.16;4997718;28;20048;-88
2023/06/01 04:50:11;;;;;;;4.00;2.80;;;;;;;19.96;47.14;102432.31;4995586;28;20034;-88
2023/06/01 04:52:37;;;;;;;3.05;2.60;;;;;;;20.01;47.26;102449.41;4993775;28;20065;-89
2023/06/01 04:55:04;;;;;;;6.22;3.38;;;;;;;19.94;47.29;102440.41;4953104;28;20037;-88
2023/06/01 04:57:32;;;;;;;5.32;2.95;;;;;;;20.02;47.17;102453.72;4986039;28;20058;-87
2023/06/01 04:59:58;;;;;;;6.22;3.22;;;;;;;19.91;47.08;102430.91;4981535;28;20065;-88
2023/06/01 05:02:25;;;;;;;3.30;2.53;;;;;;;20.00;47.03;102441.63;4982006;28;20042;-87
2023/06/01 05:04:52;;;;;;;5.10;3.03;;;;;;;19.98;47.11;102441.78;4994119;28;20030;-87
2023/06/01 05:07:18;;;;;;;3.63;2.58;;;;;;;20.04;47.27;102454.41;4982900;28;20813;-87
2023/06/01 05:09:43;;;;;;;4.85;2.90;;;;;;;19.92;47.04;102431.75;4977412;28;20033;-88
2023/06/01 05:12:09;;;;;;;4.70;3.00;;;;;;;19.94;47.10;102435.09;4979086;28;20057;-90
2023/06/01 05:14:35;;;;;;;3.85;2.95;;;;;;;19.98;47.07;102435.66;4965223;28;20145;-89
2023/06/01 05:17:01;;;;;;;4.07;2.85;;;;;;;19.99;46.96;102430.22;4983614;28;20053;-88
2023/06/01 05:19:26;;;;;;;4.15;2.70;;;;;;;20.01;47.19;102436.19;4980238;28;20045;-88
2023/06/01 05:21:53;;;;;;;4.53;2.50;;;;;;;19.97;46.79;102432.19;4997496;28;20129;-88
2023/06/01 05:24:20;;;;;;;4.20;2.90;;;;;;;20.04;47.03;102441.19;4966885;28;20065;-88
2023/06/01 05:26:45;;;;;;;5.68;2.78;;;;;;;19.99;47.14;102434.69;5007125;28;20489;-90
2023/06/01 05:29:11;;;;;;;5.47;2.88;;;;;;;20.05;47.09;102447.31;4977591;28;20152;-88
2023/06/01 05:31:37;;;;;;;4.35;2.80;;;;;;;19.97;47.08;102428.69;4981493;28;20034;-90
2023/06/01 05:34:03;;;;;;;5.28;3.10;;;;;;;19.92;46.92;102423.81;4983592;28;20374;-89
2023/06/01 05:36:31;;;;;;;3.97;2.90;;;;;;;19.90;46.89;102423.13;4968717;28;20040;-90
2023/06/01 05:38:58;;;;;;;4.30;2.83;;;;;;;19.88;47.05;102420.63;4984777;28;20711;-88
2023/06/01 05:41:25;;;;;;;4.10;3.13;;;;;;;20.05;47.06;102445.50;4997192;28;20140;-88
2023/06/01 05:43:52;;;;;;;4.22;2.97;;;;;;;20.03;47.02;102444.81;4994205;28;20037;-87
2023/06/01 05:46:18;;;;;;;4.80;2.78;;;;;;;19.95;47.10;102428.84;4968708;28;20030;-87
2023/06/01 05:48:44;;;;;;;7.65;2.92;;;;;;;19.98;47.11;102444.41;4985634;28;20072;-88
2023/06/01 05:51:12;;;;;;;4.72;2.92;;;;;;;20.01;47.09;102440.66;4983707;28;20046;-88
2023/06/01 05:53:38;;;;;;;3.33;2.38;;;;;;;20.00;47.07;102445.09;5002719;28;20038;-88
2023/06/01 05:56:03;;;;;;;4.43;2.80;;;;;;;19.93;46.95;102422.88;5001521;28;20049;-89
2023/06/01 05:58:29;;;;;;;2.80;2.30;;;;;;;20.02;46.89;102443.16;4968569;28;20062;-88
2023/06/01 06:00:57;;;;;;;5.15;2.83;;;;;;;20.00;46.70;102431.06;4983717;28;20042;-86
2023/06/01 06:03:22;;;;;;;3.85;2.83;;;;;;;20.05;47.08;102442.88;4995807;28;20377;-88
2023/06/01 06:05:48;;;;;;;4.32;3.03;;;;;;;20.04;46.87;102435.06;5002549;28;20038;-87
2023/06/01 06:08:14;;;;;;;3.70;2.42;;;;;;;20.00;47.07;102423.13;4966908;28;20057;-87
2023/06/01 06:10:41;;;;;;;4.28;2.45;;;;;;;20.08;47.05;102432.00;4996786;28;20026;-90
2023/06/01 06:13:07;;;;;;;3.67;2.90;;;;;;;19.96;46.89;102409.34;4983231;28;20373;-89
2023/06/01 06:15:32;;;;;;;4.13;2.70;;;;;;;20.02;47.00;102426.44;5018406;28;20049;-88
2023/06/01 06:17:58;;;;;;;4.30;2.78;;;;;;;19.99;47.06;102411.72;4997511;28;20038;-89
2023/06/01 06:20:23;;;;;;;4.20;2.50;;;;;;;20.04;47.07;102430.63;4983845;28;20038;-90
2023/06/01 06:22:50;;;;;;;6.00;2.75;;;;;;;20.06;46.99;102433.94;4983682;28;20060;-88
2023/06/01 06:25:16;;;;;;;4.20;2.60;;;;;;;20.00;47.10;102428.41;4986121;28;20033;-87
2023/06/01 06:27:42;;;;;;;5.07;2.60;;;;;;;20.01;46.92;102428.25;4970865;28;20049;-89
2023/06/01 06:30:07;;;;;;;3.65;2.50;;;;;;;20.06;46.94;102431.31;4996820;28;20034;-87
2023/06/01 06:32:34;;;;;;;4.18;2.28;;;;;;;19.92;47.00;102408.78;5017200;28;20038;-87
2023/06/01 06:35:00;;;;;;;2.80;2.33;;;;;;;19.78;47.05;102384.63;5013835;28;20684;-87
2023/06/01 06:37:26;;;;;;;3.60;2.50;;;;;;;20.04;47.07;102427.97;4983923;28;20116;-87
2023/06/01 06:39:51;;;;;;;3.80;2.40;;;;;;;20.06;46.84;102431.31;4968050;28;20038;-87
2023/06/01 06:42:17;;;;;;;3.22;2.42;;;;;;;19.80;46.80;102396.72;4986299;28;20034;-87
2023/06/01 06:44:42;;;;;;;3.90;2.38;;;;;;;20.08;47.17;102434.63;4965079;28;20037;-86
2023/06/01 06:47:08;;;;;;;3.85;2.55;;;;;;;20.01;47.55;102428.25;4985521;28;20118;-83
2023/06/01 06:49:33;;;;;;;3.05;2.40;;;;;;;19.91;47.34;102408.94;4987052;28;20045;-84
2023/06/01 06:51:59;;;;;;;4.40;2.58;;;;;;;19.98;47.45;102428.56;4976329;28;20042;-78
2023/06/01 06:54:24;;;;;;;3.75;2.40;;;;;;;19.94;47.32;102421.88;4993044;28;20042;-86
2023/06/01 06:56:50;;;;;;;3.97;3.00;;;;;;;19.99;47.43;102426.75;4980163;28;20038;-83
2023/06/01 06:59:16;;;;;;;3.42;2.25;;;;;;;19.96;47.44;102430.50;4998711;28;20041;-83
2023/06/01 07:01:41;;;;;;;5.63;2.58;;;;;;;19.81;47.38;102406.31;5019169;28;20042;-83
2023/06/01 07:04:08;;;;;;;4.60;2.40;;;;;;;20.08;47.37;102447.88;5015715;28;20072;-82
2023/06/01 07:06:34;;;;;;;4.50;2.30;;;;;;;19.99;47.44;102440.78;5012361;28;20041;-80
2023/06/01 07:09:00;;;;;;;3.97;2.40;;;;;;;19.90;47.34;102415.19;5015723;28;20793;-82
2023/06/01 07:11:26;;;;;;;3.47;2.35;;;;;;;20.06;47.30;102433.94;4993898;28;20065;-81
2023/06/01 07:13:57;;;;;;;4.95;2.60;;;;;;;20.05;47.38;102437.56;5012929;28;20620;-81
2023/06/01 07:16:24;;;;;;;3.20;2.15;;;;;;;20.13;47.32;102440.34;4967930;28;20030;-81
2023/06/01 07:18:51;;;;;;;3.55;2.13;;;;;;;20.10;47.19;102439.78;4994772;28;20119;-82
2023/06/01 07:21:16;;;;;;;3.70;2.13;;;;;;;20.09;47.26;102440.75;4980949;28;20065;-81
2023/06/01 07:23:43;;;;;;;3.63;2.28;;;;;;;20.16;47.33;102442.72;4997433;28;20122;-81
2023/06/01 07:26:08;;;;;;;3.08;2.10;;;;;;;20.13;47.32;102447.47;5000402;28;20042;-81
2023/06/01 07:28:34;;;;;;;4.38;2.22;;;;;;;20.11;47.33;102437.03;5011189;28;20042;-82
2023/06/01 07:31:00;;;;;;;5.13;2.38;;;;;;;19.96;47.08;102413.81;4962945;28;20042;-82
2023/06/01 07:33:25;;;;;;;3.40;2.20;;;;;;;20.09;47.13;102433.66;4994227;28;20048;-81
2023/06/01 07:35:52;;;;;;;3.47;2.10;;;;;;;20.16;47.09;102442.72;4998836;28;20026;-82
2023/06/01 07:38:20;;;;;;;4.13;2.20;;;;;;;19.98;47.29;102423.25;4977028;28;20053;-82
2023/06/01 07:40:46;;;;;;;2.78;2.03;;;;;;;20.07;47.20;102430.31;4997509;28;20059;-82
2023/06/01 07:43:11;;;;;;;3.70;2.42;;;;;;;20.00;47.35;102426.59;4984796;28;20519;-82
2023/06/01 07:45:40;;;;;;;2.88;2.20;;;;;;;20.12;47.13;102443.16;4998200;28;20045;-82
2023/06/01 07:48:05;;;;;;;2.80;1.70;;;;;;;19.86;47.08;102400.59;5000075;28;20041;-82
2023/06/01 07:50:31;;;;;;;2.50;2.03;;;;;;;20.08;47.14;102441.75;5015639;28;20056;-81
2023/06/01 07:52:57;;;;;;;3.03;2.10;;;;;;;20.09;47.11;102436.31;5011397;28;20037;-82
2023/06/01 07:55:23;;;;;;;2.95;1.90;;;;;;;20.09;47.22;102430.19;5009894;28;20042;-82
2023/06/01 07:57:49;;;;;;;5.70;2.00;;;;;;;20.16;47.49;102440.06;5015001;28;20053;-82
2023/06/01 08:00:17;;;;;;;4.60;2.13;;;;;;;20.15;47.26;102445.50;5015170;28;20046;-81
2023/06/01 08:02:43;;;;;;;4.07;2.63;;;;;;;19.94;47.25;102407.84;5002288;28;20042;-82
2023/06/01 08:05:11;;;;;;;3.38;1.90;;;;;;;20.04;47.26;102424.50;4980533;28;20038;-82
2023/06/01 08:07:42;;;;;;;3.80;2.03;;;;;;;20.03;47.34;102415.72;4994359;28;20078;-82
2023/06/01 08:10:11;;;;;;;3.13;1.92;;;;;;;20.11;47.24;102433.53;5013220;28;20039;-82
2023/06/01 08:12:36;;;;;;;2.78;2.03;;;;;;;20.15;47.09;102440.22;4984643;28;20161;-82
2023/06/01 08:15:03;;;;;;;3.15;2.05;;;;;;;20.16;47.15;102433.94;5002394;28;20037;-82
2023/06/01 08:17:29;;;;;;;2.55;2.03;;;;;;;20.05;47.10;102418.22;5010897;28;20102;-82
2023/06/01 08:19:56;;;;;;;3.05;2.30;;;;;;;20.12;47.10;102429.94;4998625;28;20064;-81
2023/06/01 08:22:23;;;;;;;3.75;1.98;;;;;;;20.08;47.33;102428.50;4982931;28;20041;-81
2023/06/01 08:24:51;;;;;;;2.85;1.88;;;;;;;20.15;47.30;102445.50;5013870;28;20045;-84
2023/06/01 08:27:21;;;;;;;2.95;1.80;;;;;;;20.16;47.02;102439.22;4998731;28;20046;-82
2023/06/01 08:29:47;;;;;;;2.50;1.75;;;;;;;20.11;46.97;102434.38;4984490;28;20052;-83
2023/06/01 08:32:13;;;;;;;2.40;1.90;;;;;;;20.15;47.12;102442.84;5007665;28;20049;-82
2023/06/01 08:34:39;;;;;;;2.40;1.70;;;;;;;20.10;46.97;102429.19;4997815;28;20052;-82
2023/06/01 08:37:05;;;;;;;4.20;1.80;;;;;;;20.07;47.08;102425.03;4993476;28;20039;-82
2023/06/01 08:39:31;;;;;;;2.00;1.77;;;;;;;20.04;47.04;102416.56;4994482;28;20050;-82
2023/06/01 08:42:13;;;;;;;2.72;1.90;;;;;;;20.16;47.09;102437.41;4979256;28;20065;-82
2023/06/01 08:44:41;;;;;;;2.72;1.80;;;;;;;20.08;46.97;102420.59;5018676;28;20038;-82
2023/06/01 08:47:07;;;;;;;2.20;2.00;;;;;;;20.23;46.89;102441.16;4983193;28;20039;-83
2023/06/01 08:49:34;;;;;;;2.22;1.48;;;;;;;20.11;46.82;102412.38;4994856;28;20044;-82
2023/06/01 08:52:02;;;;;;;1.90;1.55;;;;;;;20.17;46.77;102432.97;4979619;28;20103;-82
2023/06/01 08:54:31;;;;;;;3.00;1.60;;;;;;;20.25;46.79;102427.78;5011929;28;20069;-82
2023/06/01 08:56:59;;;;;;;3.58;1.70;;;;;;;20.18;46.88;102424.06;5010943;28;20073;-82
2023/06/01 08:59:25;;;;;;;2.35;1.60;;;;;;;20.07;46.76;102395.13;4991466;28;20061;-82
2023/06/01 09:01:53;;;;;;;3.08;1.85;;;;;;;20.25;46.81;102437.53;4995514;28;20030;-83
2023/06/01 09:04:18;;;;;;;2.20;1.70;;;;;;;20.12;46.89;102409.59;5009594;28;20054;-82
2023/06/01 09:06:44;;;;;;;1.77;1.60;;;;;;;20.25;46.66;102430.41;4992085;28;20084;-82
2023/06/01 09:09:12;;;;;;;1.92;1.65;;;;;;;20.18;46.97;102414.31;4995582;28;20042;-83
2023/06/01 09:11:38;;;;;;;3.15;1.90;;;;;;;20.25;46.88;102434.88;5010284;28;20068;-82
2023/06/01 09:14:23;;;;;;;2.72;1.70;;;;;;;20.27;46.60;102440.84;4996787;28;20045;-82
2023/06/01 09:16:50;;;;;;;2.65;1.70;;;;;;;20.24;46.85;102426.13;4997893;28;20045;-82
2023/06/01 09:19:18;;;;;;;3.10;1.85;;;;;;;20.16;46.53;102416.25;4981973;28;20059;-82
2023/06/01 09:22:04;;;;;;;3.35;2.00;;;;;;;20.22;46.71;102428.91;4991731;28;20040;-82
2023/06/01 09:24:30;;;;;;;3.50;2.15;;;;;;;20.16;46.70;102410.97;4996885;28;20056;-82
2023/06/01 09:27:00;;;;;;;3.33;1.95;;;;;;;20.09;46.66;102414.31;4986094;28;20037;-82
2023/06/01 09:29:27;;;;;;;3.85;1.70;;;;;;;20.25;46.58;102430.41;5016283;28;20049;-83
2023/06/01 09:31:52;;;;;;;2.65;2.10;;;;;;;20.11;46.83;102405.28;5004840;28;20050;-85
2023/06/01 09:34:20;;;;;;;2.80;1.70;;;;;;;20.27;46.61;102424.97;4998124;28;20057;-85
2023/06/01 09:36:49;;;;;;;2.33;2.00;;;;;;;20.26;46.74;102421.50;4996957;28;20472;-84
2023/06/01 09:39:17;;;;;;;2.47;1.70;;;;;;;19.95;46.75;102367.19;4990811;28;20049;-84
2023/06/01 09:41:52;;;;;;;2.95;1.83;;;;;;;20.25;46.70;102408.44;5005063;28;20591;-84
2023/06/01 09:44:30;;;;;;;3.40;1.90;;;;;;;20.28;46.66;102413.44;5006052;28;20046;-82
2023/06/01 09:46:56;;;;;;;3.05;1.90;;;;;;;20.30;46.42;102414.97;5008421;28;20551;-82
2023/06/01 09:49:24;;;;;;;2.67;2.00;;;;;;;20.31;46.59;102415.81;5019414;28;20037;-82
2023/06/01 09:52:07;;;;;;;3.35;1.85;;;;;;;20.29;46.44;102400.09;5020400;28;20065;-82
2023/06/01 09:54:39;;;;;;;3.85;2.45;;;;;;;20.32;46.43;102415.66;5017769;28;20049;-82
2023/06/01 09:57:06;;;;;;;5.10;1.92;;;;;;;20.10;46.40;102377.16;4984818;28;20038;-81
2023/06/01 09:59:41;;;;;;;3.63;2.13;;;;;;;20.33;46.26;102417.31;4998676;28;20373;-82
2023/06/01 10:02:11;;;;;;;4.05;2.00;;;;;;;20.21;46.37;102387.56;4997661;28;20038;-82
2023/06/01 10:04:40;;;;;;;4.07;2.08;;;;;;;20.24;46.27;102381.13;5019824;28;20030;-82
2023/06/01 10:07:06;;;;;;;5.65;2.10;;;;;;;20.31;46.27;102392.84;5000129;28;20041;-82
2023/06/01 10:09:35;;;;;;;5.65;1.95;;;;;;;20.24;46.37;102381.13;4997029;28;20053;-81
2023/06/01 10:12:01;;;;;;;3.88;2.25;;;;;;;20.22;46.18;102383.94;4995475;28;20046;-83
2023/06/01 10:14:27;;;;;;;3.22;1.85;;;;;;;20.27;46.18;102388.78;5017609;28;20042;-84
2023/06/01 10:16:53;;;;;;;3.50;1.98;;;;;;;20.17;46.40;102383.53;5002297;28;20034;-83
2023/06/01 10:19:21;;;;;;;5.28;2.30;;;;;;;20.36;46.26;102403.81;5018374;28;20485;-82
2023/06/01 10:21:47;;;;;;;3.17;2.20;;;;;;;20.29;46.39;102393.94;5030658;28;20057;-82
2023/06/01 10:24:16;;;;;;;5.72;2.25;;;;;;;20.27;46.05;102388.78;4982004;28;20105;-81
2023/06/01 10:27:40;;;;;;;4.70;2.25;;;;;;;20.36;46.27;102401.16;5023862;28;20040;-82
2023/06/01 10:30:09;;;;;;;4.00;2.00;;;;;;;20.34;46.00;102394.34;4930666;29;20052;-82
2023/06/01 10:32:37;;;;;;;4.10;2.25;;;;;;;20.39;45.90;102392.94;5024058;28;20050;-82
2023/06/01 10:35:04;;;;;;;3.63;1.98;;;;;;;20.35;45.91;102385.44;5000595;28;20038;-82
2023/06/01 10:37:30;;;;;;;4.88;2.20;;;;;;;20.31;45.99;102374.31;5005408;28;20061;-82
2023/06/01 10:40:14;;;;;;;3.13;2.03;;;;;;;20.40;46.06;102391.09;5023435;28;20366;-82
2023/06/01 10:42:40;;;;;;;4.50;2.30;;;;;;;20.34;45.90;102381.94;5021234;28;20038;-81
2023/06/01 10:45:06;;;;;;;4.97;2.08;;;;;;;20.37;45.88;102378.19;4955612;28;20038;-83
2023/06/01 10:47:35;;;;;;;3.80;2.22;;;;;;;20.43;45.83;102380.25;4990232;28;20030;-84
2023/06/01 10:50:00;;;;;;;4.00;2.08;;;;;;;20.43;45.76;102396.97;4998004;28;20038;-82
2023/06/01 10:52:34;;;;;;;3.10;2.17;;;;;;;20.40;45.51;102388.47;4983456;28;20053;-82
2023/06/01 10:55:06;;;;;;;5.45;2.67;;;;;;;20.44;45.42;102392.50;4999131;28;20112;-82
2023/06/01 10:57:32;;;;;;;4.18;2.40;;;;;;;20.43;45.65;102391.69;4999816;28;20077;-82
2023/06/01 11:00:19;;;;;;;6.32;2.40;;;;;;;20.43;45.38;102383.75;5000203;28;20053;-83
2023/06/01 11:02:51;;;;;;;3.95;2.03;;;;;;;20.40;45.40;102377.88;4983517;28;20038;-82
2023/06/01 11:05:48;;;;;;;3.47;2.05;;;;;;;20.44;45.41;102382.75;5009242;28;20049;-82
2023/06/01 11:08:16;;;;;;;3.55;2.15;;;;;;;20.44;45.47;102379.28;5009885;28;20088;-81
2023/06/01 11:10:55;;;;;;;5.68;2.30;;;;;;;20.47;45.60;102387.78;4995559;28;20760;-82
2023/06/01 11:13:34;;;;;;;5.15;2.40;;;;;;;20.46;45.56;102377.31;5011147;28;20598;-81
2023/06/01 11:16:20;;;;;;;5.45;2.75;;;;;;;20.48;45.23;102376.22;5008644;28;20493;-82
2023/06/01 11:18:57;;;;;;;6.22;2.45;;;;;;;20.44;45.40;102374.81;4999497;28;20057;-82
2023/06/01 11:21:27;;;;;;;3.28;2.22;;;;;;;20.47;45.39;102376.38;4977973;28;20129;-81
2023/06/01 11:23:55;;;;;;;5.63;2.33;;;;;;;20.47;45.49;102379.84;4996700;28;20048;-82
2023/06/01 11:26:24;;;;;;;4.25;2.45;;;;;;;20.49;45.38;102382.34;5011226;28;20479;-82
2023/06/01 11:28:51;;;;;;;9.15;2.70;;;;;;;20.46;45.16;102374.66;4996301;28;20128;-81
2023/06/01 11:31:18;;;;;;;4.32;2.80;;;;;;;20.25;45.34;102343.13;5005945;28;20108;-82